Time;durP1;ratioP1;P1;durP2;ratioP2;P2;SDS_P1;SDS_P2;PMS_P1;PMS_P2;Temp;Humidity;BMP_temperature;BMP_pressure;BME280_temperature;BME280_humidity;BME280_pressure;Samples;Min_cycle;Max_cycle;Signal;HPM_P1;HPM_P2
2022/09/11 00:00:49;;;;;;;25.40;17.65;;;14.40;99.90;;;;;;4958050;28;20053;-72
2022/09/11 00:03:15;;;;;;;21.00;17.45;;;14.30;99.90;;;;;;4979504;28;20096;-72
2022/09/11 00:05:42;;;;;;;19.48;17.38;;;14.20;99.90;;;;;;4984021;28;20042;-72
2022/09/11 00:08:10;;;;;;;26.20;20.33;;;14.20;99.90;;;;;;4962010;28;20043;-73
2022/09/11 00:10:39;;;;;;;30.17;22.90;;;14.20;99.90;;;;;;4960880;28;20053;-72
2022/09/11 00:13:06;;;;;;;30.17;24.20;;;14.20;99.90;;;;;;4978227;28;20045;-71
2022/09/11 00:15:36;;;;;;;29.60;22.88;;;14.10;99.90;;;;;;4979896;28;20096;-73
2022/09/11 00:18:03;;;;;;;30.13;22.35;;;14.10;99.90;;;;;;4981954;28;20046;-72
2022/09/11 00:20:29;;;;;;;26.83;22.00;;;14.10;99.90;;;;;;4979923;28;20113;-72
2022/09/11 00:22:55;;;;;;;40.15;29.60;;;14.10;99.90;;;;;;4979895;28;20069;-72
2022/09/11 00:25:20;;;;;;;40.55;23.50;;;14.10;99.90;;;;;;4968190;28;20046;-73
2022/09/11 00:27:49;;;;;;;26.30;20.60;;;14.10;99.90;;;;;;4965831;28;20035;-73
2022/09/11 00:30:14;;;;;;;24.67;20.58;;;14.20;99.90;;;;;;4981006;28;20112;-72
2022/09/11 00:32:40;;;;;;;29.70;22.17;;;14.10;99.90;;;;;;4980553;28;20043;-72
2022/09/11 00:35:06;;;;;;;67.38;22.13;;;14.10;99.90;;;;;;4981561;28;20034;-73
2022/09/11 00:37:32;;;;;;;29.08;19.58;;;14.10;99.90;;;;;;4983307;28;20220;-72
2022/09/11 00:39:57;;;;;;;34.15;18.80;;;14.10;99.90;;;;;;4983450;28;20042;-73
2022/09/11 00:42:24;;;;;;;27.90;16.20;;;14.10;99.90;;;;;;4981323;28;20054;-72
2022/09/11 00:44:49;;;;;;;57.88;14.07;;;14.10;99.90;;;;;;4982822;28;20121;-73
2022/09/11 00:47:17;;;;;;;29.42;13.07;;;14.00;99.90;;;;;;4980570;28;20133;-73
2022/09/11 00:49:50;;;;;;;33.72;15.93;;;14.00;99.90;;;;;;4983560;28;20057;-73
2022/09/11 00:52:25;;;;;;;16.98;11.07;;;14.00;99.90;;;;;;4979513;28;20046;-72
2022/09/11 00:55:03;;;;;;;43.38;13.25;;;14.00;99.90;;;;;;4982546;28;20494;-72
2022/09/11 00:57:35;;;;;;;32.10;12.57;;;14.00;99.90;;;;;;4981108;28;20521;-72
2022/09/11 01:00:02;;;;;;;44.55;12.68;;;14.00;99.90;;;;;;4981569;28;20498;-73
2022/09/11 01:02:32;;;;;;;42.85;11.25;;;13.90;99.90;;;;;;4982569;28;20486;-73
2022/09/11 01:04:58;;;;;;;38.85;12.90;;;13.90;99.90;;;;;;4983337;28;20042;-72
2022/09/11 01:07:25;;;;;;;16.77;11.52;;;13.90;99.90;;;;;;4976066;28;20072;-73
2022/09/11 01:09:52;;;;;;;15.70;11.75;;;13.80;99.90;;;;;;4983203;28;20626;-73
2022/09/11 01:12:41;;;;;;;18.05;13.82;;;13.80;99.90;;;;;;4986120;28;20038;-72
2022/09/11 01:15:21;;;;;;;19.15;15.10;;;13.80;99.90;;;;;;4987256;28;20489;-72
2022/09/11 01:17:46;;;;;;;357.42;18.27;;;13.80;99.90;;;;;;4983883;28;20387;-73
2022/09/11 01:20:32;;;;;;;24.88;13.05;;;13.80;99.90;;;;;;4981885;28;20049;-72
2022/09/11 01:23:16;;;;;;;15.77;12.52;;;13.70;99.90;;;;;;4984100;28;20401;-72
2022/09/11 01:26:19;;;;;;;15.02;12.95;;;13.70;99.90;;;;;;4984075;28;20050;-72
2022/09/11 01:29:05;;;;;;;16.58;13.25;;;13.60;99.90;;;;;;4979012;28;20471;-72
2022/09/11 01:31:41;;;;;;;17.70;13.95;;;13.60;99.90;;;;;;4983571;28;20070;-72
2022/09/11 01:34:18;;;;;;;20.52;15.38;;;13.60;99.90;;;;;;4969510;28;20399;-72
2022/09/11 01:36:52;;;;;;;28.40;18.20;;;13.60;99.90;;;;;;4978790;28;20100;-72
2022/09/11 01:39:22;;;;;;;268.58;21.83;;;13.60;99.90;;;;;;4976628;28;20467;-72
2022/09/11 01:42:13;;;;;;;28.08;17.52;;;13.70;99.90;;;;;;4984800;28;20038;-72
2022/09/11 01:44:52;;;;;;;24.45;17.55;;;13.70;99.90;;;;;;4982737;28;20129;-72
2022/09/11 01:47:19;;;;;;;22.92;17.25;;;13.60;99.90;;;;;;4983841;28;20413;-72
2022/09/11 01:49:57;;;;;;;265.75;21.20;;;13.60;99.90;;;;;;4966924;28;20402;-72
2022/09/11 01:52:29;;;;;;;178.38;23.02;;;13.60;99.90;;;;;;4984781;28;20121;-72
2022/09/11 01:55:10;;;;;;;25.25;18.38;;;13.60;99.90;;;;;;4968405;28;20042;-72
2022/09/11 01:57:41;;;;;;;108.80;21.10;;;13.60;99.90;;;;;;4983982;28;20466;-72
2022/09/11 02:00:10;;;;;;;133.05;21.42;;;13.60;99.90;;;;;;4967692;28;20038;-72
2022/09/11 02:02:40;;;;;;;25.90;18.05;;;13.60;99.90;;;;;;4985134;28;20487;-72
2022/09/11 02:05:21;;;;;;;29.73;17.75;;;13.50;99.90;;;;;;4980545;28;20491;-72
2022/09/11 02:07:57;;;;;;;116.53;15.48;;;13.50;99.90;;;;;;4984675;28;20718;-72
2022/09/11 02:10:29;;;;;;;128.60;16.20;;;13.50;99.90;;;;;;4965758;28;20046;-72
2022/09/11 02:13:32;;;;;;;42.88;15.65;;;13.50;99.90;;;;;;4966932;28;20038;-73
2022/09/11 02:16:36;;;;;;;23.77;15.20;;;13.50;99.90;;;;;;4968187;28;20051;-72
2022/09/11 02:19:07;;;;;;;27.63;14.27;;;13.50;99.90;;;;;;4984618;28;20473;-72
2022/09/11 02:21:33;;;;;;;49.58;16.63;;;13.50;99.90;;;;;;4968613;28;20045;-72
2022/09/11 02:24:00;;;;;;;33.70;17.40;;;13.50;99.90;;;;;;4987337;28;20026;-73
2022/09/11 02:26:29;;;;;;;26.40;17.60;;;13.50;99.90;;;;;;4984088;28;20034;-72
2022/09/11 02:28:55;;;;;;;126.03;19.40;;;13.50;99.90;;;;;;4984768;28;20039;-73
2022/09/11 02:31:21;;;;;;;58.88;17.73;;;13.50;99.90;;;;;;4968377;28;20549;-72
2022/09/11 02:33:48;;;;;;;36.53;17.38;;;13.50;99.90;;;;;;4988659;28;20150;-72
2022/09/11 02:36:34;;;;;;;20.05;16.52;;;13.50;99.90;;;;;;4989271;28;20057;-73
2022/09/11 02:39:25;;;;;;;45.40;17.38;;;13.50;99.90;;;;;;4981808;28;20130;-72
2022/09/11 02:42:06;;;;;;;57.95;14.95;;;13.40;99.90;;;;;;4983654;28;20049;-71
2022/09/11 02:44:50;;;;;;;30.52;14.70;;;13.40;99.90;;;;;;4985725;28;20046;-71
2022/09/11 02:47:52;;;;;;;44.22;16.60;;;13.30;99.90;;;;;;4982566;28;20112;-73
2022/09/11 02:50:25;;;;;;;26.50;18.50;;;13.30;99.90;;;;;;4987859;28;20061;-72
2022/09/11 02:53:11;;;;;;;41.03;18.20;;;13.30;99.90;;;;;;4979536;28;20038;-72
2022/09/11 02:55:49;;;;;;;25.48;15.60;;;13.20;99.90;;;;;;4981992;28;20656;-72
2022/09/11 02:58:31;;;;;;;15.77;14.18;;;13.30;99.90;;;;;;4981212;28;20062;-73
2022/09/11 03:01:01;;;;;;;56.20;15.52;;;13.20;99.90;;;;;;4984590;28;20026;-72
2022/09/11 03:03:35;;;;;;;13.98;12.57;;;13.30;99.90;;;;;;4981440;28;20046;-73
2022/09/11 03:06:01;;;;;;;37.20;11.95;;;13.20;99.90;;;;;;4979552;28;20181;-74
2022/09/11 03:08:26;;;;;;;15.65;12.02;;;13.10;99.90;;;;;;4960542;28;20125;-73
2022/09/11 03:10:53;;;;;;;29.02;12.20;;;13.00;99.90;;;;;;4980720;28;20053;-73
2022/09/11 03:13:19;;;;;;;118.32;14.55;;;13.00;99.90;;;;;;4979692;28;20057;-72
2022/09/11 03:15:45;;;;;;;50.20;14.55;;;12.90;99.90;;;;;;4986687;28;20068;-73
2022/09/11 03:18:13;;;;;;;50.13;15.57;;;12.80;99.90;;;;;;4985827;28;20106;-72
2022/09/11 03:20:39;;;;;;;56.47;16.30;;;12.80;99.90;;;;;;4981132;28;20034;-73
2022/09/11 03:23:07;;;;;;;347.27;22.30;;;12.80;99.90;;;;;;4981525;28;20050;-72
2022/09/11 03:25:32;;;;;;;418.52;21.95;;;12.80;99.90;;;;;;4984027;28;20157;-74
2022/09/11 03:27:58;;;;;;;210.48;19.63;;;12.80;99.90;;;;;;4982881;28;20142;-72
2022/09/11 03:30:23;;;;;;;84.20;17.45;;;12.80;99.90;;;;;;4988383;28;20118;-72
2022/09/11 03:32:49;;;;;;;79.78;15.93;;;12.80;99.90;;;;;;4988685;28;20045;-73
2022/09/11 03:35:15;;;;;;;56.22;16.88;;;12.80;99.90;;;;;;4985164;28;20042;-73
2022/09/11 03:37:40;;;;;;;245.15;22.35;;;12.80;99.90;;;;;;4981822;28;20059;-73
2022/09/11 03:40:07;;;;;;;183.15;20.23;;;12.90;99.90;;;;;;4965241;28;20050;-73
2022/09/11 03:42:32;;;;;;;142.85;19.20;;;12.90;99.90;;;;;;4984294;28;20042;-73
2022/09/11 03:44:58;;;;;;;27.20;17.58;;;12.90;99.90;;;;;;4987000;28;20042;-73
2022/09/11 03:47:23;;;;;;;48.10;17.50;;;12.90;99.90;;;;;;4985225;28;20039;-73
2022/09/11 03:49:49;;;;;;;33.40;18.83;;;12.90;99.90;;;;;;4965686;28;20108;-73
2022/09/11 03:52:15;;;;;;;26.02;19.05;;;12.90;99.90;;;;;;4987085;28;20046;-72
2022/09/11 03:54:41;;;;;;;21.42;18.17;;;13.00;99.90;;;;;;4984841;28;20070;-73
2022/09/11 03:57:06;;;;;;;21.58;17.05;;;13.00;99.90;;;;;;4984722;28;20049;-72
2022/09/11 03:59:32;;;;;;;20.27;15.88;;;13.00;99.90;;;;;;4986434;28;20046;-73
2022/09/11 04:01:58;;;;;;;32.35;14.00;;;13.00;99.90;;;;;;4980970;28;20045;-73
2022/09/11 04:04:23;;;;;;;51.92;14.05;;;13.00;99.90;;;;;;4980500;28;20054;-72
2022/09/11 04:06:49;;;;;;;13.77;12.40;;;13.00;99.90;;;;;;4982175;28;20085;-73
2022/09/11 04:09:16;;;;;;;13.45;12.15;;;12.90;99.90;;;;;;4983323;28;20490;-73
2022/09/11 04:11:41;;;;;;;15.90;13.13;;;12.90;99.90;;;;;;4983667;28;20092;-73
2022/09/11 04:14:07;;;;;;;143.85;14.10;;;12.90;99.90;;;;;;4982738;28;20027;-73
2022/09/11 04:16:34;;;;;;;22.17;11.60;;;12.90;99.90;;;;;;4983599;28;20069;-72
2022/09/11 04:19:00;;;;;;;203.60;15.98;;;12.90;99.90;;;;;;4980774;28;20035;-73
2022/09/11 04:21:27;;;;;;;52.00;11.98;;;12.80;99.90;;;;;;4965940;28;20049;-73
2022/09/11 04:23:59;;;;;;;22.33;11.05;;;12.80;99.90;;;;;;4983578;28;20042;-73
2022/09/11 04:26:27;;;;;;;59.97;12.30;;;12.80;99.90;;;;;;4961576;28;20057;-72
2022/09/11 04:28:53;;;;;;;28.70;11.80;;;12.80;99.90;;;;;;4979175;28;20042;-73
2022/09/11 04:31:20;;;;;;;12.05;10.95;;;12.70;99.90;;;;;;4981028;28;20038;-73
2022/09/11 04:33:47;;;;;;;12.73;10.00;;;12.60;99.90;;;;;;4982927;28;20050;-73
2022/09/11 04:36:18;;;;;;;14.52;10.57;;;12.60;99.90;;;;;;4980714;28;20095;-73
2022/09/11 04:38:44;;;;;;;12.30;11.02;;;12.50;99.90;;;;;;4985014;28;20034;-73
2022/09/11 04:41:10;;;;;;;12.45;11.35;;;12.50;99.90;;;;;;4981444;28;20129;-73
2022/09/11 04:43:37;;;;;;;16.75;12.05;;;12.50;99.90;;;;;;4980712;28;20137;-73
2022/09/11 04:46:12;;;;;;;12.43;11.32;;;12.50;99.90;;;;;;4982181;28;20522;-73
2022/09/11 04:48:45;;;;;;;15.55;12.32;;;12.60;99.90;;;;;;4983680;28;20035;-73
2022/09/11 04:51:19;;;;;;;42.58;14.23;;;12.60;99.90;;;;;;4966488;28;20076;-73
2022/09/11 04:53:45;;;;;;;81.07;15.35;;;12.60;99.90;;;;;;4982210;28;20043;-73
2022/09/11 04:56:12;;;;;;;17.40;13.63;;;12.60;99.90;;;;;;4982970;28;20049;-73
2022/09/11 04:58:39;;;;;;;25.73;13.75;;;12.60;99.90;;;;;;4981692;28;20027;-73
2022/09/11 05:01:06;;;;;;;15.40;13.90;;;12.60;99.90;;;;;;4982285;28;20042;-74
2022/09/11 05:03:32;;;;;;;123.18;15.70;;;12.60;99.90;;;;;;4983325;28;20104;-73
2022/09/11 05:06:01;;;;;;;59.25;13.60;;;12.60;99.90;;;;;;4965007;28;20038;-74
2022/09/11 05:08:27;;;;;;;87.13;15.93;;;12.60;99.90;;;;;;4978760;28;20418;-71
2022/09/11 05:10:53;;;;;;;42.22;13.73;;;12.50;99.90;;;;;;4983101;28;20039;-73
2022/09/11 05:13:19;;;;;;;63.63;13.88;;;12.50;99.90;;;;;;4981018;28;20042;-73
2022/09/11 05:15:45;;;;;;;19.65;12.60;;;12.40;99.90;;;;;;4985883;28;20061;-73
2022/09/11 05:18:11;;;;;;;13.38;11.98;;;12.40;99.90;;;;;;4987733;28;20042;-73
2022/09/11 05:20:38;;;;;;;14.07;12.57;;;12.40;99.90;;;;;;4987635;28;20039;-73
2022/09/11 05:23:04;;;;;;;13.00;11.80;;;12.50;99.90;;;;;;4985768;28;20169;-73
2022/09/11 05:25:30;;;;;;;13.10;11.90;;;12.50;99.90;;;;;;4986280;28;20129;-73
2022/09/11 05:27:56;;;;;;;12.35;11.25;;;12.50;99.90;;;;;;4988324;28;20513;-73
2022/09/11 05:30:22;;;;;;;12.73;11.63;;;12.60;99.90;;;;;;4991247;28;20057;-72
2022/09/11 05:32:54;;;;;;;11.82;10.82;;;12.60;99.90;;;;;;4985105;28;20046;-73
2022/09/11 05:35:23;;;;;;;13.10;11.90;;;12.60;99.90;;;;;;4989013;28;20042;-73
2022/09/11 05:37:49;;;;;;;13.48;12.27;;;12.70;99.90;;;;;;4984545;28;20080;-73
2022/09/11 05:40:15;;;;;;;13.07;11.98;;;12.70;99.90;;;;;;4985582;28;20433;-73
2022/09/11 05:42:40;;;;;;;11.88;10.68;;;12.70;99.90;;;;;;4985170;28;20053;-73
2022/09/11 05:45:06;;;;;;;13.55;12.02;;;12.80;99.90;;;;;;4984274;28;20172;-73
2022/09/11 05:47:32;;;;;;;14.73;12.50;;;12.80;99.90;;;;;;4987549;28;20521;-73
2022/09/11 05:49:58;;;;;;;14.13;12.73;;;12.80;99.90;;;;;;4990227;28;20050;-72
2022/09/11 05:52:24;;;;;;;13.35;12.15;;;12.80;99.90;;;;;;4989418;28;20101;-73
2022/09/11 05:54:52;;;;;;;13.10;11.80;;;12.70;99.90;;;;;;4982590;28;20042;-73
2022/09/11 05:57:18;;;;;;;12.43;11.23;;;12.80;99.90;;;;;;4989847;28;20438;-73
2022/09/11 05:59:44;;;;;;;13.10;11.75;;;12.80;99.90;;;;;;4990029;28;20510;-73
2022/09/11 06:02:10;;;;;;;13.82;12.52;;;12.80;99.90;;;;;;4990348;28;20081;-72
2022/09/11 06:04:36;;;;;;;13.55;12.15;;;12.90;99.90;;;;;;4981864;28;20528;-72
2022/09/11 06:07:02;;;;;;;18.92;14.35;;;13.00;99.90;;;;;;4985132;28;20045;-73
2022/09/11 06:09:27;;;;;;;15.30;13.75;;;13.00;99.90;;;;;;4981815;28;20047;-73
2022/09/11 06:11:53;;;;;;;15.32;13.50;;;13.00;99.90;;;;;;4986144;28;20498;-72
2022/09/11 06:14:20;;;;;;;14.95;13.57;;;13.10;99.90;;;;;;4981811;28;20030;-73
2022/09/11 06:16:47;;;;;;;16.35;12.98;;;13.10;99.90;;;;;;4981367;28;20466;-73
2022/09/11 06:19:12;;;;;;;17.17;14.90;;;13.10;99.90;;;;;;4986706;28;20069;-73
2022/09/11 06:21:39;;;;;;;18.73;15.80;;;13.10;99.90;;;;;;4968587;28;20046;-73
2022/09/11 06:24:05;;;;;;;17.55;15.73;;;13.10;99.90;;;;;;4982821;28;20439;-73
2022/09/11 06:26:31;;;;;;;17.98;15.98;;;13.10;99.90;;;;;;4961175;28;20070;-73
2022/09/11 06:28:56;;;;;;;18.92;16.83;;;13.10;99.90;;;;;;4986439;28;20116;-73
2022/09/11 06:31:24;;;;;;;20.42;18.25;;;13.20;99.90;;;;;;4984098;28;20039;-73
2022/09/11 06:33:50;;;;;;;21.85;18.67;;;13.30;99.90;;;;;;4964346;28;20042;-73
2022/09/11 06:36:22;;;;;;;21.63;18.73;;;13.30;99.90;;;;;;4968935;28;20499;-72
2022/09/11 06:38:53;;;;;;;22.73;18.27;;;13.40;99.90;;;;;;4979128;28;20042;-72
2022/09/11 06:41:19;;;;;;;21.27;18.80;;;13.50;99.90;;;;;;4985980;28;20034;-72
2022/09/11 06:43:45;;;;;;;27.88;20.75;;;13.50;99.90;;;;;;4983414;28;20043;-72
2022/09/11 06:46:13;;;;;;;25.60;21.15;;;13.60;99.90;;;;;;4983139;28;20035;-73
2022/09/11 06:48:44;;;;;;;25.88;21.05;;;13.60;99.90;;;;;;4982127;28;20160;-72
2022/09/11 06:51:11;;;;;;;25.73;19.83;;;13.70;99.90;;;;;;4982958;28;20041;-72
2022/09/11 06:53:39;;;;;;;22.83;19.85;;;13.80;99.90;;;;;;4983646;28;20038;-73
2022/09/11 06:56:07;;;;;;;24.95;19.85;;;13.90;99.90;;;;;;4985767;28;20035;-72
2022/09/11 06:58:33;;;;;;;21.13;18.90;;;14.00;99.90;;;;;;4981526;28;20038;-72
2022/09/11 07:01:03;;;;;;;28.15;19.33;;;14.00;99.90;;;;;;4981654;28;20049;-72
2022/09/11 07:03:29;;;;;;;19.42;17.33;;;14.10;99.90;;;;;;4982494;28;20054;-72
2022/09/11 07:05:55;;;;;;;22.05;19.67;;;14.10;99.90;;;;;;4980510;28;20117;-73
2022/09/11 07:08:20;;;;;;;25.30;20.90;;;14.20;99.90;;;;;;4980722;28;20574;-72
2022/09/11 07:10:46;;;;;;;28.90;20.60;;;14.30;99.90;;;;;;4982263;28;20046;-73
2022/09/11 07:13:12;;;;;;;23.92;17.95;;;14.40;99.90;;;;;;4982265;28;20077;-72
2022/09/11 07:15:37;;;;;;;24.30;19.25;;;14.40;99.90;;;;;;4982843;28;20046;-72
2022/09/11 07:18:04;;;;;;;27.08;19.67;;;14.50;99.90;;;;;;4982940;28;20092;-72
2022/09/11 07:20:30;;;;;;;22.65;18.38;;;14.60;99.90;;;;;;4948503;28;20039;-73
2022/09/11 07:22:57;;;;;;;25.25;18.05;;;14.80;99.90;;;;;;4986671;28;20037;-72
2022/09/11 07:25:23;;;;;;;25.15;19.45;;;14.90;99.90;;;;;;4981483;28;20069;-73
2022/09/11 07:27:50;;;;;;;24.50;21.40;;;15.00;99.90;;;;;;4979623;28;20081;-73
2022/09/11 07:30:17;;;;;;;25.60;21.55;;;15.10;99.90;;;;;;4984030;28;20438;-74
2022/09/11 07:32:43;;;;;;;24.58;19.95;;;15.30;99.90;;;;;;4982392;28;20038;-73
2022/09/11 07:35:09;;;;;;;23.08;20.45;;;15.40;99.90;;;;;;4985110;28;20062;-73
2022/09/11 07:37:35;;;;;;;22.67;18.42;;;15.50;99.90;;;;;;4980695;28;20081;-73
2022/09/11 07:40:01;;;;;;;21.40;18.55;;;15.60;99.90;;;;;;4986118;28;20065;-73
2022/09/11 07:42:27;;;;;;;23.13;19.52;;;15.80;99.90;;;;;;4987535;28;20041;-73
2022/09/11 07:44:54;;;;;;;22.58;18.05;;;15.90;99.90;;;;;;4985394;28;20035;-74
2022/09/11 07:47:20;;;;;;;21.55;18.83;;;16.00;99.90;;;;;;4981941;28;20503;-74
2022/09/11 07:49:46;;;;;;;20.10;18.08;;;16.10;99.90;;;;;;4970893;28;20041;-73
2022/09/11 07:52:13;;;;;;;19.27;17.25;;;16.20;99.90;;;;;;4979965;28;20065;-73
2022/09/11 07:54:38;;;;;;;22.10;17.45;;;16.30;99.90;;;;;;4947520;28;20035;-73
2022/09/11 07:57:04;;;;;;;20.13;16.25;;;16.40;99.90;;;;;;4965820;28;20089;-73
2022/09/11 07:59:30;;;;;;;17.55;15.40;;;16.50;99.90;;;;;;4982290;28;20046;-73
2022/09/11 08:01:56;;;;;;;17.92;14.05;;;16.60;99.90;;;;;;4981126;28;20051;-73
2022/09/11 08:04:21;;;;;;;17.50;14.90;;;16.80;99.90;;;;;;4985731;28;20042;-73
2022/09/11 08:06:47;;;;;;;14.85;13.20;;;16.90;99.90;;;;;;4964879;28;20042;-73
2022/09/11 08:09:17;;;;;;;14.95;13.40;;;17.00;99.90;;;;;;4984967;28;20051;-73
2022/09/11 08:11:47;;;;;;;14.80;12.93;;;17.10;99.90;;;;;;4982122;28;20502;-73
2022/09/11 08:14:16;;;;;;;15.00;13.50;;;17.20;99.90;;;;;;4983197;28;20136;-73
2022/09/11 08:16:42;;;;;;;14.02;12.63;;;17.40;99.90;;;;;;4985310;28;20746;-73
2022/09/11 08:19:15;;;;;;;13.43;12.02;;;17.40;99.90;;;;;;4982882;28;20042;-73
2022/09/11 08:21:41;;;;;;;14.05;12.57;;;17.50;99.90;;;;;;4982861;28;20569;-73
2022/09/11 08:24:08;;;;;;;13.95;10.32;;;17.60;99.90;;;;;;4983230;28;20050;-73
2022/09/11 08:26:35;;;;;;;12.32;9.60;;;17.70;99.90;;;;;;4980608;28;20041;-73
2022/09/11 08:29:00;;;;;;;11.05;9.95;;;17.90;99.90;;;;;;4981774;28;20046;-73
2022/09/11 08:31:27;;;;;;;12.43;10.05;;;18.00;99.90;;;;;;4984486;28;20467;-73
2022/09/11 08:33:54;;;;;;;11.52;9.40;;;18.10;99.90;;;;;;4981091;28;20039;-74
2022/09/11 08:36:20;;;;;;;10.10;8.10;;;18.20;99.90;;;;;;4986703;28;20038;-74
2022/09/11 08:38:46;;;;;;;13.13;8.27;;;18.30;99.90;;;;;;4987408;28;20065;-74
2022/09/11 08:41:31;;;;;;;10.90;8.05;;;18.40;99.90;;;;;;4984458;28;20030;-74
2022/09/11 08:43:56;;;;;;;10.85;7.90;;;18.60;99.90;;;;;;4985256;28;20494;-74
2022/09/11 08:46:28;;;;;;;11.50;7.63;;;18.70;99.90;;;;;;4984547;28;20041;-74
2022/09/11 08:49:20;;;;;;;11.73;7.97;;;18.80;99.90;;;;;;4983897;28;20030;-73
2022/09/11 08:51:48;;;;;;;9.80;6.70;;;18.90;99.90;;;;;;4980752;28;20141;-73
2022/09/11 08:54:28;;;;;;;9.07;6.28;;;19.00;99.90;;;;;;4979147;28;20402;-73
2022/09/11 08:57:05;;;;;;;9.07;7.28;;;19.00;99.90;;;;;;4988422;28;20112;-73
2022/09/11 08:59:53;;;;;;;7.45;5.70;;;19.10;99.90;;;;;;4981925;28;20442;-73
2022/09/11 09:02:45;;;;;;;7.38;5.65;;;19.30;99.90;;;;;;4982440;28;20046;-74
2022/09/11 09:05:48;;;;;;;7.18;4.70;;;19.40;99.90;;;;;;4999480;28;20098;-73
2022/09/11 09:08:43;;;;;;;7.03;5.25;;;19.80;99.90;;;;;;4971237;28;20047;-75
2022/09/11 09:11:27;;;;;;;7.10;4.00;;;20.00;99.90;;;;;;4988654;28;20406;-75
2022/09/11 09:14:11;;;;;;;7.25;3.67;;;20.40;99.90;;;;;;4977506;28;20129;-73
2022/09/11 09:16:59;;;;;;;7.40;3.70;;;20.60;99.90;;;;;;4979919;28;20126;-73
2022/09/11 09:19:48;;;;;;;5.20;3.47;;;20.70;99.90;;;;;;4983290;28;20055;-73
2022/09/11 09:22:26;;;;;;;4.97;3.15;;;20.70;99.90;;;;;;4972820;28;20410;-73
2022/09/11 09:24:59;;;;;;;4.25;2.67;;;20.70;99.90;;;;;;4981750;28;20047;-73
2022/09/11 09:27:32;;;;;;;6.45;3.17;;;20.80;99.90;;;;;;4979435;28;20133;-73
2022/09/11 09:30:02;;;;;;;4.78;3.03;;;20.90;99.90;;;;;;4986010;28;20085;-72
2022/09/11 09:32:38;;;;;;;5.25;2.72;;;20.80;99.90;;;;;;4984613;28;20395;-72
2022/09/11 09:35:23;;;;;;;4.53;3.55;;;20.70;99.90;;;;;;4982721;28;20026;-73
2022/09/11 09:37:49;;;;;;;6.65;3.67;;;20.60;99.90;;;;;;4986746;28;20401;-75
2022/09/11 09:40:17;;;;;;;5.28;3.75;;;20.70;99.90;;;;;;4989528;28;20043;-75
2022/09/11 09:43:06;;;;;;;9.05;4.40;;;20.80;99.90;;;;;;4984425;28;22212;-74
2022/09/11 09:45:36;;;;;;;5.90;3.65;;;21.00;99.90;;;;;;4985020;28;20410;-74
2022/09/11 09:48:03;;;;;;;7.82;3.55;;;21.10;99.90;;;;;;4982591;28;20061;-74
2022/09/11 09:50:34;;;;;;;4.00;2.47;;;21.30;99.90;;;;;;4981431;28;20488;-74
2022/09/11 09:53:10;;;;;;;7.05;2.50;;;21.50;99.90;;;;;;4981335;28;20042;-75
2022/09/11 09:55:39;;;;;;;3.55;2.30;;;21.80;99.90;;;;;;4985137;28;20039;-74
2022/09/11 09:58:06;;;;;;;5.25;2.30;;;22.00;99.90;;;;;;4986352;28;20456;-74
2022/09/11 10:00:38;;;;;;;3.40;2.10;;;22.00;99.90;;;;;;4986495;28;20395;-74
2022/09/11 10:03:20;;;;;;;4.13;2.15;;;21.90;99.90;;;;;;4974747;28;20455;-75
2022/09/11 10:05:47;;;;;;;;;;;21.80;99.90;;;;;;4986848;28;20449;-74
2022/09/11 10:08:33;;;;;;;3.88;2.00;;;21.60;99.90;;;;;;4988086;28;19925;-74
2022/09/11 10:11:05;;;;;;;4.32;2.10;;;21.70;99.90;;;;;;4988998;28;20093;-75
2022/09/11 10:13:32;;;;;;;8.13;1.88;;;21.70;99.90;;;;;;4990535;28;20558;-75
2022/09/11 10:16:01;;;;;;;7.03;2.30;;;21.90;99.90;;;;;;4966568;28;20047;-74
2022/09/11 10:18:41;;;;;;;4.20;2.10;;;22.10;99.90;;;;;;4988910;28;20089;-74
2022/09/11 10:21:28;;;;;;;7.28;2.35;;;22.30;99.90;;;;;;4985675;28;20050;-74
2022/09/11 10:23:59;;;;;;;4.03;2.22;;;22.40;99.90;;;;;;4988861;28;20134;-74
2022/09/11 10:26:38;;;;;;;3.63;1.80;;;22.60;99.90;;;;;;4989059;28;20138;-75
2022/09/11 10:29:16;;;;;;;4.00;1.92;;;22.80;99.90;;;;;;4990804;28;20414;-75
2022/09/11 10:31:49;;;;;;;4.07;2.05;;;23.00;99.90;;;;;;4985870;28;20043;-75
2022/09/11 10:34:19;;;;;;;3.35;1.58;;;23.30;99.90;;;;;;4988306;28;20132;-74
2022/09/11 10:37:00;;;;;;;2.60;1.30;;;23.50;99.90;;;;;;4968208;28;20064;-73
2022/09/11 10:39:30;;;;;;;3.85;1.50;;;23.60;99.90;;;;;;4988383;28;20038;-75
2022/09/11 10:41:58;;;;;;;3.40;1.70;;;23.60;99.90;;;;;;4985343;28;20042;-75
2022/09/11 10:44:26;;;;;;;4.70;1.50;;;23.50;99.90;;;;;;4964193;28;20043;-75
2022/09/11 10:47:15;;;;;;;3.70;1.38;;;23.30;99.90;;;;;;4991407;28;20046;-75
2022/09/11 10:49:41;;;;;;;3.08;1.38;;;23.20;99.90;;;;;;4959732;28;20054;-75
2022/09/11 10:52:06;;;;;;;3.60;1.52;;;23.20;99.90;;;;;;4956334;28;20086;-75
2022/09/11 10:54:57;;;;;;;1.98;1.30;;;23.30;99.90;;;;;;4960967;28;20510;-75
2022/09/11 10:57:46;;;;;;;3.25;1.40;;;23.40;99.90;;;;;;4990968;28;20524;-74
2022/09/11 11:00:21;;;;;;;3.22;1.55;;;23.50;99.90;;;;;;4979977;28;20031;-75
2022/09/11 11:02:55;;;;;;;4.10;1.60;;;23.70;99.90;;;;;;4973160;28;20121;-75
2022/09/11 11:05:28;;;;;;;7.03;2.00;;;23.70;99.90;;;;;;4969069;28;20053;-75
2022/09/11 11:08:10;;;;;;;3.28;1.60;;;23.60;99.90;;;;;;4986270;28;20038;-75
2022/09/11 11:10:46;;;;;;;;;;;23.60;99.90;;;;;;4981435;28;20547;-75
2022/09/11 11:13:38;;;;;;;3.47;1.33;;;23.70;99.90;;;;;;4985781;28;19918;-80
2022/09/11 11:16:07;;;;;;;;;;;23.60;99.90;;;;;;4991877;28;20045;-80
2022/09/11 11:18:58;;;;;;;3.53;1.20;;;23.50;99.90;;;;;;5003503;28;19925;-80
2022/09/11 11:21:53;;;;;;;6.30;2.20;;;23.30;99.90;;;;;;4983262;28;20045;-80
2022/09/11 11:24:30;;;;;;;4.20;1.90;;;23.30;99.90;;;;;;4992760;28;20060;-80
2022/09/11 11:27:07;;;;;;;2.67;1.15;;;23.40;99.90;;;;;;4973420;28;20038;-80
2022/09/11 11:29:59;;;;;;;4.97;0.95;;;23.70;99.90;;;;;;4980165;28;20041;-80
2022/09/11 11:32:44;;;;;;;5.35;1.20;;;24.00;99.90;;;;;;4978516;28;20040;-80
2022/09/11 11:35:27;;;;;;;1.55;0.95;;;24.30;99.90;;;;;;4981717;28;20506;-80
2022/09/11 11:38:01;;;;;;;4.13;1.00;;;24.60;98.60;;;;;;4987871;28;20038;-80
2022/09/11 11:40:33;;;;;;;3.13;1.20;;;24.70;97.80;;;;;;4985622;28;20045;-78
2022/09/11 11:43:18;;;;;;;3.67;1.25;;;24.80;94.20;;;;;;4992163;28;20065;-79
2022/09/11 11:45:54;;;;;;;2.45;1.10;;;24.60;95.00;;;;;;4987404;28;20081;-79
2022/09/11 11:48:30;;;;;;;4.18;1.20;;;24.80;95.60;;;;;;4969857;28;20046;-76
2022/09/11 11:51:08;;;;;;;2.90;1.20;;;25.00;95.50;;;;;;4992581;28;20087;-80
2022/09/11 11:54:04;;;;;;;3.25;1.33;;;25.00;96.30;;;;;;4983425;28;20050;-79
2022/09/11 11:56:53;;;;;;;2.40;1.20;;;25.00;96.30;;;;;;4990092;28;20043;-79
2022/09/11 11:59:40;;;;;;;2.63;1.10;;;25.10;96.50;;;;;;4979536;28;20041;-80
2022/09/11 12:02:06;;;;;;;2.90;1.20;;;25.10;94.70;;;;;;4974589;28;20044;-79
2022/09/11 12:04:59;;;;;;;4.13;1.50;;;25.30;94.70;;;;;;4952104;28;20046;-79
2022/09/11 12:07:33;;;;;;;3.00;1.48;;;25.40;93.70;;;;;;4970167;28;20046;-79
2022/09/11 12:10:01;;;;;;;3.40;1.20;;;25.60;93.50;;;;;;4968272;28;20073;-79
2022/09/11 12:12:32;;;;;;;2.25;0.88;;;25.70;93.40;;;;;;4986846;28;20038;-80
2022/09/11 12:15:04;;;;;;;2.57;1.20;;;26.00;92.60;;;;;;4986199;28;20077;-79
2022/09/11 12:17:34;;;;;;;5.38;1.20;;;26.30;91.80;;;;;;4978453;28;20048;-79
2022/09/11 12:20:09;;;;;;;2.38;1.10;;;26.50;92.10;;;;;;4979597;28;20045;-80
2022/09/11 12:22:48;;;;;;;3.83;1.10;;;26.80;92.10;;;;;;4992809;28;20102;-80
2022/09/11 12:25:20;;;;;;;3.90;1.30;;;26.70;90.50;;;;;;4974196;28;20053;-79
2022/09/11 12:27:47;;;;;;;3.42;1.25;;;26.70;92.20;;;;;;4997242;28;20042;-79
2022/09/11 12:30:27;;;;;;;3.05;1.20;;;26.80;91.30;;;;;;4983891;28;20046;-79
2022/09/11 12:32:56;;;;;;;2.33;1.10;;;26.60;89.30;;;;;;4984237;28;20065;-80
2022/09/11 12:35:33;;;;;;;4.82;1.40;;;26.40;90.50;;;;;;4979360;28;20046;-80
2022/09/11 12:38:16;;;;;;;1.85;1.30;;;26.20;90.90;;;;;;4978561;28;20034;-78
2022/09/11 12:40:52;;;;;;;3.35;1.10;;;25.80;90.30;;;;;;4971147;28;20102;-75
2022/09/11 12:43:44;;;;;;;1.75;1.20;;;25.40;90.10;;;;;;4974267;28;20432;-75
2022/09/11 12:46:36;;;;;;;1.75;1.27;;;25.20;92.00;;;;;;5001640;28;20093;-75
2022/09/11 12:49:04;;;;;;;2.25;1.20;;;25.00;94.70;;;;;;4968551;28;20042;-75
2022/09/11 12:51:40;;;;;;;4.22;1.20;;;24.90;94.00;;;;;;4957041;28;20042;-75
2022/09/11 12:54:20;;;;;;;2.53;1.02;;;24.80;94.00;;;;;;4983419;28;20121;-75
2022/09/11 12:56:51;;;;;;;1.63;1.02;;;24.80;94.70;;;;;;4971833;28;20046;-74